createdAt,value
2024-01-10T00:00:27.274Z,7.60
2024-01-10T00:03:29.896Z,7.85
2024-01-10T00:06:32.554Z,8.88
2024-01-10T00:09:35.028Z,7.95
2024-01-10T00:12:37.910Z,9.27
2024-01-10T00:15:40.452Z,9.80
2024-01-10T00:18:43.511Z,7.47
2024-01-10T00:21:47.242Z,8.57
2024-01-10T00:24:49.798Z,8.20
2024-01-10T00:27:52.297Z,9.13
2024-01-10T00:30:54.893Z,8.60
2024-01-10T00:33:57.544Z,8.30
2024-01-10T00:37:00.070Z,8.75
2024-01-10T00:40:02.940Z,9.20
2024-01-10T00:43:05.505Z,9.23
2024-01-10T00:46:08.207Z,9.50
2024-01-10T00:49:10.740Z,10.03
2024-01-10T00:52:13.282Z,8.95
2024-01-10T00:55:15.871Z,8.55
2024-01-10T00:58:18.423Z,9.80
2024-01-10T01:01:21.010Z,7.70
2024-01-10T01:04:23.745Z,9.02
2024-01-10T01:07:27.242Z,9.95
2024-01-10T01:10:29.825Z,8.95
2024-01-10T01:13:32.428Z,10.10
2024-01-10T01:16:34.943Z,8.70
2024-01-10T01:19:37.654Z,9.20
2024-01-10T01:22:40.746Z,8.55
2024-01-10T01:25:43.470Z,9.63
2024-01-10T01:28:45.991Z,9.00
2024-01-10T01:31:48.703Z,9.02
2024-01-10T01:34:51.295Z,8.35
2024-01-10T01:37:53.881Z,8.77
2024-01-10T01:40:56.470Z,8.27
2024-01-10T01:43:59.069Z,8.30
2024-01-10T01:47:02.904Z,7.80
2024-01-10T01:50:07.326Z,5.97
2024-01-10T01:53:10.079Z,5.85
2024-01-10T01:56:15.977Z,8.40
2024-01-10T01:59:19.050Z,8.23
2024-01-10T02:02:23.095Z,8.13
2024-01-10T02:05:26.811Z,6.50
2024-01-10T02:08:29.410Z,6.95
2024-01-10T02:11:32.701Z,7.57
2024-01-10T02:14:35.687Z,8.50
2024-01-10T02:17:38.208Z,8.45
2024-01-10T02:20:43.648Z,8.00
2024-01-10T02:23:46.140Z,6.82
2024-01-10T02:26:49.167Z,8.02
2024-01-10T02:29:52.053Z,6.53
2024-01-10T02:32:54.566Z,7.97
2024-01-10T02:35:57.096Z,6.88
2024-01-10T02:38:59.650Z,8.05
2024-01-10T02:42:02.212Z,7.45
2024-01-10T02:45:05.679Z,6.47
2024-01-10T02:48:09.589Z,7.20
2024-01-10T02:51:12.187Z,6.57
2024-01-10T02:54:14.703Z,6.65
2024-01-10T02:57:17.242Z,6.43
2024-01-10T03:00:19.893Z,6.83
2024-01-10T03:03:22.456Z,6.05
2024-01-10T03:06:25.908Z,5.50
2024-01-10T03:09:28.570Z,6.80
2024-01-10T03:12:31.071Z,6.97
2024-01-10T03:15:33.577Z,6.40
2024-01-10T03:18:36.354Z,7.05
2024-01-10T03:21:38.885Z,6.00
2024-01-10T03:24:41.311Z,6.95
2024-01-10T03:27:43.797Z,5.78
2024-01-10T03:30:46.658Z,6.63
2024-01-10T03:33:50.009Z,5.63
2024-01-10T03:36:52.638Z,5.80
2024-01-10T03:39:55.113Z,6.15
2024-01-10T03:42:57.620Z,7.30
2024-01-10T03:46:00.187Z,7.63
2024-01-10T03:49:03.142Z,6.05
2024-01-10T03:52:05.778Z,6.80
2024-01-10T03:55:08.198Z,6.25
2024-01-10T03:58:10.687Z,5.47
2024-01-10T04:01:14.486Z,6.43
2024-01-10T04:04:16.992Z,6.82
2024-01-10T04:07:19.477Z,5.93
2024-01-10T04:10:22.125Z,6.00
2024-01-10T04:13:24.683Z,5.88
2024-01-10T04:16:28.765Z,6.45
2024-01-10T04:19:31.235Z,6.10
2024-01-10T04:22:33.901Z,5.50
2024-01-10T04:25:36.483Z,6.50
2024-01-10T04:28:41.398Z,6.63
2024-01-10T04:31:44.145Z,7.00
2024-01-10T04:34:46.753Z,5.30
2024-01-10T04:37:49.267Z,5.80
2024-01-10T04:40:51.764Z,5.57
2024-01-10T04:43:54.331Z,4.78
2024-01-10T04:46:56.977Z,5.22
2024-01-10T04:49:59.586Z,5.65
2024-01-10T04:53:02.165Z,6.13
2024-01-10T04:56:05.359Z,6.20
2024-01-10T04:59:08.032Z,6.35
2024-01-10T05:02:10.984Z,6.60
2024-01-10T05:05:13.619Z,6.25
2024-01-10T05:08:16.170Z,7.07
2024-01-10T05:11:19.065Z,6.25
2024-01-10T05:14:22.454Z,5.07
2024-01-10T05:17:25.170Z,7.18
2024-01-10T05:20:27.771Z,6.20
2024-01-10T05:23:30.285Z,5.20
2024-01-10T05:26:33.023Z,5.80
2024-01-10T05:29:35.784Z,6.82
2024-01-10T05:32:38.436Z,5.53
2024-01-10T05:35:41.008Z,6.43
2024-01-10T05:38:43.798Z,5.57
2024-01-10T05:41:46.773Z,6.15
2024-01-10T05:44:49.420Z,5.65
2024-01-10T05:47:51.997Z,22.55
2024-01-10T05:50:54.566Z,13.98
2024-01-10T05:53:57.045Z,9.33
2024-01-10T05:57:01.534Z,8.10
2024-01-10T06:00:14.368Z,5.82
2024-01-10T06:03:17.016Z,4.10
2024-01-10T06:06:19.610Z,6.22
2024-01-10T06:09:23.153Z,7.38
2024-01-10T06:12:26.514Z,9.50
2024-01-10T06:15:29.607Z,8.45
2024-01-10T06:18:32.239Z,7.82
2024-01-10T06:21:35.041Z,8.48
2024-01-10T06:24:37.700Z,7.00
2024-01-10T06:27:41.297Z,9.50
2024-01-10T06:30:44.041Z,9.05
2024-01-10T06:33:46.893Z,9.00
2024-01-10T06:36:49.552Z,9.02
2024-01-10T06:39:52.199Z,8.48
2024-01-10T06:42:54.822Z,7.13
2024-01-10T06:45:57.599Z,7.87
2024-01-10T06:49:00.870Z,8.45
2024-01-10T06:52:04.446Z,9.32
2024-01-10T06:55:09.314Z,10.45
2024-01-10T06:58:12.408Z,9.75
2024-01-10T07:01:16.539Z,10.45
2024-01-10T07:04:25.185Z,9.40
2024-01-10T07:07:29.610Z,9.67
2024-01-10T07:10:33.834Z,9.40
2024-01-10T07:13:39.998Z,8.57
2024-01-10T07:16:47.955Z,9.50
2024-01-10T07:19:52.801Z,9.38
2024-01-10T07:22:56.446Z,7.93
2024-01-10T07:26:00.135Z,8.30
2024-01-10T07:29:04.006Z,10.65
2024-01-10T07:32:11.257Z,11.88
2024-01-10T07:35:17.618Z,11.55
2024-01-10T07:38:20.411Z,13.53
2024-01-10T07:41:23.961Z,11.45
2024-01-10T07:44:27.673Z,12.02
2024-01-10T07:47:30.335Z,13.20
2024-01-10T07:50:33.182Z,13.20
2024-01-10T07:53:35.889Z,14.38
2024-01-10T07:56:38.502Z,14.35
2024-01-10T07:59:41.092Z,14.23
2024-01-10T08:02:43.748Z,14.05
2024-01-10T08:05:47.816Z,13.32
2024-01-10T08:08:50.503Z,10.23
2024-01-10T08:11:53.351Z,8.77
2024-01-10T08:14:56.448Z,8.48
2024-01-10T08:17:59.152Z,8.87
2024-01-10T08:21:01.833Z,6.57
2024-01-10T08:24:04.994Z,4.93
2024-01-10T08:27:07.607Z,5.15
2024-01-10T08:30:11.322Z,5.97
2024-01-10T08:33:14.000Z,5.60
2024-01-10T08:36:17.087Z,4.53
2024-01-10T08:39:20.076Z,5.90
2024-01-10T08:42:22.800Z,6.63
2024-01-10T08:45:25.942Z,5.95
2024-01-10T08:48:28.719Z,6.20
2024-01-10T08:51:31.657Z,6.10
2024-01-10T08:54:35.128Z,5.43
2024-01-10T08:57:37.986Z,6.15
2024-01-10T09:00:40.823Z,6.35
2024-01-10T09:03:44.629Z,6.57
2024-01-10T09:06:48.944Z,7.95
2024-01-10T09:09:54.349Z,8.83
2024-01-10T09:13:01.086Z,8.30
2024-01-10T09:16:04.432Z,6.43
2024-01-10T09:19:11.078Z,8.27
2024-01-10T09:22:14.802Z,8.95
2024-01-10T09:25:17.589Z,8.02
2024-01-10T09:28:20.244Z,9.60
2024-01-10T09:31:22.931Z,10.52
2024-01-10T09:34:26.890Z,11.70
2024-01-10T09:37:29.974Z,2.60
2024-01-10T09:40:32.905Z,9.40
2024-01-10T09:43:35.621Z,10.45
2024-01-10T09:46:41.894Z,10.48
2024-01-10T09:49:47.310Z,9.27
2024-01-10T09:53:06.924Z,9.35
2024-01-10T09:56:11.489Z,10.10
2024-01-10T09:59:14.608Z,8.50
2024-01-10T10:02:19.092Z,7.90
2024-01-10T10:05:23.529Z,10.30
2024-01-10T10:08:26.730Z,9.90
2024-01-10T10:11:29.706Z,7.93
2024-01-10T10:14:32.489Z,7.72
2024-01-10T10:17:35.268Z,7.72
2024-01-10T10:20:39.425Z,5.33
2024-01-10T10:23:44.315Z,5.18
2024-01-10T10:26:46.981Z,6.68
2024-01-10T10:29:50.264Z,7.75
2024-01-10T10:32:53.065Z,6.50
2024-01-10T10:35:56.999Z,5.88
2024-01-10T10:39:04.146Z,6.18
2024-01-10T10:42:07.751Z,6.27
2024-01-10T10:45:13.240Z,5.75
2024-01-10T10:48:24.740Z,4.72
2024-01-10T10:51:35.122Z,5.78
2024-01-10T10:54:40.249Z,5.57
2024-01-10T10:57:54.170Z,6.25
2024-01-10T11:01:08.640Z,5.47
2024-01-10T11:04:17.236Z,4.63
2024-01-10T11:07:32.246Z,4.75
2024-01-10T11:10:41.368Z,5.43
2024-01-10T11:13:47.818Z,5.70
2024-01-10T11:17:19.828Z,5.90
2024-01-10T11:20:49.380Z,5.43
2024-01-10T11:23:55.787Z,5.40
2024-01-10T11:27:15.037Z,4.57
2024-01-10T11:30:34.264Z,5.40
2024-01-10T11:33:44.583Z,4.18
2024-01-10T11:37:15.136Z,5.20
2024-01-10T11:40:44.032Z,5.43
2024-01-10T11:43:46.735Z,6.63
2024-01-10T11:46:51.987Z,6.45
2024-01-10T11:49:56.655Z,5.27
2024-01-10T11:52:59.525Z,4.68
2024-01-10T11:56:23.385Z,4.60
2024-01-10T11:59:33.348Z,4.65
2024-01-10T12:02:37.377Z,4.93
2024-01-10T12:05:40.175Z,4.28
2024-01-10T12:08:43.252Z,5.00
2024-01-10T12:11:46.290Z,4.80
2024-01-10T12:14:49.050Z,4.87
2024-01-10T12:17:53.053Z,5.47
2024-01-10T12:20:55.806Z,5.97
2024-01-10T12:23:58.682Z,5.43
2024-01-10T12:27:01.551Z,5.17
2024-01-10T12:30:06.212Z,4.93
2024-01-10T12:33:10.350Z,5.93
2024-01-10T12:36:13.523Z,5.77
2024-01-10T12:39:16.341Z,4.73
2024-01-10T12:42:19.238Z,5.47
2024-01-10T12:45:23.274Z,5.10
2024-01-10T12:48:26.261Z,4.97
2024-01-10T12:51:30.636Z,4.83
2024-01-10T12:54:33.303Z,4.70
2024-01-10T12:57:36.089Z,5.00
2024-01-10T13:00:40.958Z,8.05
2024-01-10T13:03:43.811Z,5.93
2024-01-10T13:06:46.898Z,5.60
2024-01-10T13:09:49.788Z,6.82
2024-01-10T13:12:52.714Z,7.22
2024-01-10T13:15:56.993Z,12.07
2024-01-10T13:19:00.777Z,9.57
2024-01-10T13:22:07.580Z,8.57
2024-01-10T13:25:11.735Z,7.13
2024-01-10T13:28:14.661Z,7.32
2024-01-10T13:31:17.554Z,7.97
2024-01-10T13:34:21.197Z,7.93
2024-01-10T13:37:24.300Z,7.20
2024-01-10T13:40:28.094Z,9.13
2024-01-10T13:43:30.654Z,7.38
2024-01-10T13:46:35.570Z,8.63
2024-01-10T13:49:38.383Z,7.67
2024-01-10T13:52:41.098Z,7.97
2024-01-10T13:55:43.735Z,8.63
2024-01-10T13:58:46.339Z,21.13
2024-01-10T14:01:49.503Z,7.90
2024-01-10T14:04:55.390Z,10.40
2024-01-10T14:07:58.206Z,11.00
2024-01-10T14:11:01.228Z,11.25
2024-01-10T14:14:04.222Z,9.95
2024-01-10T14:17:07.534Z,10.90
2024-01-10T14:20:10.900Z,8.25
2024-01-10T14:23:13.787Z,9.00
2024-01-10T14:26:16.813Z,8.82
2024-01-10T14:29:20.573Z,8.40
2024-01-10T14:32:23.799Z,8.68
2024-01-10T14:35:26.901Z,7.90
2024-01-10T14:38:30.170Z,7.73
2024-01-10T14:41:32.822Z,8.25
2024-01-10T14:44:36.136Z,8.60
2024-01-10T14:47:39.101Z,8.30
2024-01-10T14:50:42.198Z,7.57
2024-01-10T14:53:45.040Z,8.43
2024-01-10T14:56:50.175Z,7.85
2024-01-10T14:59:52.840Z,7.63
2024-01-10T15:02:55.553Z,9.35
2024-01-10T15:05:58.340Z,8.10
2024-01-10T15:09:04.157Z,8.68
2024-01-10T15:12:09.589Z,10.55
2024-01-10T15:15:12.643Z,10.63
2024-01-10T15:18:16.193Z,10.47
2024-01-10T15:21:20.650Z,10.75
2024-01-10T15:24:23.506Z,8.50
2024-01-10T15:27:29.331Z,7.77
2024-01-10T15:30:38.408Z,8.50
2024-01-10T15:33:47.952Z,8.90
2024-01-10T15:36:50.854Z,9.88
2024-01-10T15:39:53.304Z,9.25
2024-01-10T15:42:55.897Z,10.55
2024-01-10T15:45:58.671Z,9.80
2024-01-10T15:49:01.638Z,11.67
2024-01-10T15:52:04.678Z,13.05
2024-01-10T15:55:09.922Z,12.82
2024-01-10T15:58:12.644Z,11.60
2024-01-10T16:01:15.395Z,11.88
2024-01-10T16:04:18.348Z,12.35
2024-01-10T16:07:22.677Z,14.40
2024-01-10T16:10:29.020Z,14.97
2024-01-10T16:13:32.569Z,14.57
2024-01-10T16:16:37.054Z,14.80
2024-01-10T16:19:40.119Z,15.00
2024-01-10T16:22:42.919Z,16.63
2024-01-10T16:25:45.796Z,16.58
2024-01-10T16:28:49.466Z,17.98
2024-01-10T16:31:52.324Z,15.35
2024-01-10T16:34:55.410Z,18.83
2024-01-10T16:37:58.229Z,20.25
2024-01-10T16:41:00.855Z,22.17
2024-01-10T16:44:03.520Z,22.20
2024-01-10T16:47:06.954Z,22.83
2024-01-10T16:50:10.765Z,22.47
2024-01-10T16:53:13.654Z,22.05
2024-01-10T16:56:16.544Z,22.67
2024-01-10T16:59:19.390Z,21.75
2024-01-10T17:02:22.071Z,21.85
2024-01-10T17:05:25.537Z,24.65
2024-01-10T17:08:28.450Z,24.58
2024-01-10T17:11:31.731Z,26.90
2024-01-10T17:14:34.713Z,23.70
2024-01-10T17:17:37.732Z,25.65
2024-01-10T17:20:41.368Z,25.47
2024-01-10T17:23:44.163Z,24.17
2024-01-10T17:26:47.439Z,24.10
2024-01-10T17:29:50.399Z,22.95
2024-01-10T17:32:53.360Z,26.17
2024-01-10T17:35:56.148Z,27.83
2024-01-10T17:38:59.304Z,26.52
2024-01-10T17:42:01.966Z,25.87
2024-01-10T17:45:05.098Z,26.65
2024-01-10T17:48:08.522Z,26.90
2024-01-10T17:51:11.773Z,29.60
2024-01-10T17:54:14.513Z,29.65
2024-01-10T17:57:20.813Z,30.80
2024-01-10T18:00:29.046Z,35.90
2024-01-10T18:03:32.216Z,32.92
2024-01-10T18:06:36.704Z,36.70
2024-01-10T18:09:39.503Z,36.72
2024-01-10T18:12:42.265Z,35.90
2024-01-10T18:15:45.056Z,34.47
2024-01-10T18:18:48.003Z,36.17
2024-01-10T18:21:52.189Z,36.90
2024-01-10T18:24:54.894Z,37.03
2024-01-10T18:27:57.626Z,36.47
2024-01-10T18:31:00.830Z,37.42
2024-01-10T18:34:04.373Z,37.22
2024-01-10T18:37:07.358Z,40.00
2024-01-10T18:40:10.368Z,39.35
2024-01-10T18:43:13.260Z,37.07
2024-01-10T18:46:15.895Z,37.88
2024-01-10T18:49:18.771Z,39.47
2024-01-10T18:52:21.402Z,35.97
2024-01-10T18:55:23.952Z,38.53
2024-01-10T18:58:27.172Z,40.40
2024-01-10T19:01:32.485Z,37.63
2024-01-10T19:04:37.099Z,37.78
2024-01-10T19:07:39.776Z,38.13
2024-01-10T19:10:42.568Z,40.63
2024-01-10T19:13:50.024Z,44.80
2024-01-10T19:16:52.740Z,40.78
2024-01-10T19:19:55.597Z,40.33
2024-01-10T19:22:59.088Z,36.80
2024-01-10T19:26:02.355Z,39.88
2024-01-10T19:29:04.934Z,41.05
2024-01-10T19:32:07.743Z,39.03
2024-01-10T19:35:10.929Z,46.85
2024-01-10T19:38:13.792Z,49.78
2024-01-10T19:41:23.559Z,48.65
2024-01-10T19:44:26.770Z,49.07
2024-01-10T19:47:29.881Z,50.42
2024-01-10T19:50:32.573Z,50.90
2024-01-10T19:53:36.406Z,50.37
2024-01-10T19:56:39.473Z,50.35
2024-01-10T19:59:41.946Z,50.53
2024-01-10T20:02:47.060Z,49.78
2024-01-10T20:05:49.868Z,52.67
2024-01-10T20:08:52.691Z,51.80
2024-01-10T20:11:55.472Z,53.83
2024-01-10T20:14:58.248Z,35.67
2024-01-10T20:18:01.418Z,52.05
2024-01-10T20:21:06.391Z,53.05
2024-01-10T20:24:08.869Z,54.77
2024-01-10T20:27:12.184Z,55.00
2024-01-10T20:30:15.392Z,58.97
2024-01-10T20:33:18.022Z,49.80
2024-01-10T20:36:20.966Z,51.72
2024-01-10T20:39:24.043Z,52.40
2024-01-10T20:42:29.985Z,51.45
2024-01-10T20:45:32.787Z,51.53
2024-01-10T20:48:35.930Z,46.13
2024-01-10T20:51:38.593Z,35.33
2024-01-10T20:54:41.498Z,47.97
2024-01-10T20:57:44.009Z,44.90
2024-01-10T21:00:50.660Z,42.17
2024-01-10T21:03:53.378Z,48.10
2024-01-10T21:07:12.013Z,45.65
2024-01-10T21:10:16.918Z,47.28
2024-01-10T21:13:19.420Z,46.63
2024-01-10T21:16:21.937Z,45.20
2024-01-10T21:19:24.691Z,40.88
2024-01-10T21:22:27.727Z,46.88
2024-01-10T21:25:30.630Z,66.10
2024-01-10T21:28:33.113Z,53.00
2024-01-10T21:31:35.780Z,45.47
2024-01-10T21:34:38.325Z,40.17
2024-01-10T21:37:40.980Z,36.50
2024-01-10T21:40:43.631Z,34.38
2024-01-10T21:43:47.724Z,37.85
2024-01-10T21:46:50.397Z,37.43
2024-01-10T21:49:53.023Z,30.25
2024-01-10T21:52:55.891Z,35.75
2024-01-10T21:55:58.426Z,37.60
2024-01-10T21:59:01.448Z,40.35
2024-01-10T22:02:04.240Z,45.28
2024-01-10T22:05:07.110Z,40.20
2024-01-10T22:08:10.781Z,39.88
2024-01-10T22:11:14.534Z,38.15
2024-01-10T22:14:22.139Z,31.55
2024-01-10T22:17:24.795Z,28.43
2024-01-10T22:20:27.503Z,37.80
2024-01-10T22:23:30.175Z,34.40
2024-01-10T22:26:32.793Z,30.23
2024-01-10T22:29:35.359Z,30.92
2024-01-10T22:32:39.216Z,34.20
2024-01-10T22:35:41.842Z,37.38
2024-01-10T22:38:44.308Z,33.80
2024-01-10T22:41:47.025Z,32.03
2024-01-10T22:44:49.593Z,34.22
2024-01-10T22:47:52.322Z,35.27
2024-01-10T22:50:55.376Z,33.25
2024-01-10T22:53:58.447Z,33.25
2024-01-10T22:57:01.399Z,34.60
2024-01-10T23:00:11.704Z,34.17
2024-01-10T23:03:14.317Z,31.58
2024-01-10T23:06:18.034Z,32.17
2024-01-10T23:09:20.590Z,34.30
2024-01-10T23:12:24.409Z,32.13
2024-01-10T23:15:26.843Z,31.67
2024-01-10T23:18:29.425Z,32.93
2024-01-10T23:21:33.860Z,32.30
2024-01-10T23:24:36.397Z,28.08
2024-01-10T23:27:40.192Z,28.03
2024-01-10T23:30:43.544Z,31.55
2024-01-10T23:33:46.621Z,29.63
2024-01-10T23:36:49.149Z,29.35
2024-01-10T23:39:51.609Z,29.33
2024-01-10T23:42:54.089Z,29.40
2024-01-10T23:45:57.170Z,24.67
2024-01-10T23:48:59.956Z,20.73
2024-01-10T23:52:02.624Z,22.63
2024-01-10T23:55:05.558Z,22.75
2024-01-10T23:58:08.628Z,23.30
